Time;durP1;ratioP1;P1;durP2;ratioP2;P2;SDS_P1;SDS_P2;PMS_P1;PMS_P2;Temp;Humidity;BMP_temperature;BMP_pressure;BME280_temperature;BME280_humidity;BME280_pressure;Samples;Min_cycle;Max_cycle;Signal;HPM_P1;HPM_P2
2022/07/04 04:19:00;;;;;;;4.43;3.53;;;;;;;23.22;51.97;100408.62;5647604;28;20115;-85
2022/07/04 04:22:04;;;;;;;4.95;3.72;;;;;;;23.39;51.96;100407.69;5293740;33;32837;-85
2022/07/04 04:25:07;;;;;;;3.95;3.10;;;;;;;23.57;51.70;100414.69;5307102;33;33844;-85
2022/07/04 04:28:10;;;;;;;3.45;3.10;;;;;;;23.70;51.21;100406.06;5307832;33;33554;-87
2022/07/04 04:31:14;;;;;;;4.55;3.25;;;;;;;23.84;50.54;100409.16;5307362;33;33977;-86
2022/07/04 04:34:17;;;;;;;3.92;3.37;;;;;;;23.95;50.31;100406.19;5312429;33;34584;-86
2022/07/04 04:37:19;;;;;;;5.90;4.55;;;;;;;24.07;49.79;100408.75;5322530;33;34532;-87
2022/07/04 04:40:22;;;;;;;5.53;3.22;;;;;;;24.21;49.44;100398.91;5307786;33;34704;-87
2022/07/04 04:43:25;;;;;;;3.72;3.28;;;;;;;24.35;48.98;100402.00;5307404;33;35216;-87
2022/07/04 04:46:28;;;;;;;3.35;2.97;;;;;;;24.51;48.29;100399.34;5307079;33;34668;-87
2022/07/04 04:49:30;;;;;;;5.03;3.20;;;;;;;24.62;48.09;100398.28;5313465;33;34001;-87
2022/07/04 04:52:33;;;;;;;4.70;3.15;;;;;;;24.80;47.68;100397.75;5308404;33;34964;-87
2022/07/04 04:55:36;;;;;;;3.92;3.53;;;;;;;24.92;47.62;100385.66;5308495;33;34593;-87
2022/07/04 04:58:39;;;;;;;3.70;3.05;;;;;;;25.12;47.25;100385.69;5307510;33;33975;-87
2022/07/04 05:01:42;;;;;;;8.32;3.53;;;;;;;25.25;46.75;100379.69;5309645;33;33844;-87
2022/07/04 05:04:45;;;;;;;5.35;3.67;;;;;;;25.42;46.31;100386.84;5307291;33;33628;-87
2022/07/04 05:07:48;;;;;;;4.47;3.33;;;;;;;25.56;45.97;100379.66;5313861;33;34604;-86
2022/07/04 05:10:52;;;;;;;5.18;3.62;;;;;;;25.74;45.04;100381.00;5310832;33;34349;-86
2022/07/04 05:13:55;;;;;;;3.97;3.20;;;;;;;25.95;44.94;100385.41;5301210;33;34402;-86
2022/07/04 05:16:58;;;;;;;3.28;2.97;;;;;;;26.12;44.28;100390.63;5304991;33;33909;-86
2022/07/04 05:20:01;;;;;;;4.15;3.40;;;;;;;26.28;43.55;100385.03;5296398;33;35300;-90
2022/07/04 05:23:04;;;;;;;4.78;3.45;;;;;;;26.49;43.33;100396.81;5297083;33;34513;-90
2022/07/04 05:26:06;;;;;;;3.80;3.35;;;;;;;26.65;43.13;100393.72;5300710;33;35013;-90
2022/07/04 05:29:09;;;;;;;3.03;2.72;;;;;;;26.82;41.99;100398.03;5289394;33;34058;-88
2022/07/04 05:32:12;;;;;;;4.10;3.25;;;;;;;26.98;41.68;100405.12;5276600;33;33105;-87
2022/07/04 05:35:15;;;;;;;3.92;3.28;;;;;;;27.14;41.29;100403.06;5292606;33;33932;-87
2022/07/04 05:38:19;;;;;;;3.30;3.00;;;;;;;27.27;40.50;100402.44;5296940;33;34648;-87
2022/07/04 05:41:22;;;;;;;7.35;3.12;;;;;;;27.43;40.28;100399.56;5306416;33;33578;-87
2022/07/04 05:44:25;;;;;;;4.72;3.37;;;;;;;27.49;39.75;100407.50;5305835;33;34451;-87
2022/07/04 05:47:28;;;;;;;4.12;2.97;;;;;;;27.63;39.35;100404.06;5302966;33;34824;-86
2022/07/04 05:50:31;;;;;;;6.05;2.90;;;;;;;27.69;39.26;100403.72;5287866;33;35033;-86
2022/07/04 05:53:34;;;;;;;3.25;2.87;;;;;;;27.86;38.56;100405.28;5286751;33;34226;-86
2022/07/04 05:56:39;;;;;;;3.53;2.90;;;;;;;27.92;38.20;100399.37;5276796;33;33868;-87
2022/07/04 05:59:42;;;;;;;3.60;2.60;;;;;;;28.05;38.46;100408.91;5287679;33;33633;-86
2022/07/04 06:02:45;;;;;;;2.95;2.70;;;;;;;28.15;37.79;100406.03;5288090;33;34445;-86
2022/07/04 06:05:49;;;;;;;3.17;2.70;;;;;;;28.24;37.54;100395.97;5282878;33;34207;-87
2022/07/04 06:08:51;;;;;;;3.22;2.83;;;;;;;28.36;36.95;100394.72;5270416;33;33651;-87
2022/07/04 06:11:54;;;;;;;3.08;2.50;;;;;;;28.44;36.54;100394.09;5266770;33;35268;-86
2022/07/04 06:14:57;;;;;;;3.58;2.20;;;;;;;28.58;36.44;100399.72;5272891;33;34703;-86
2022/07/04 06:18:01;;;;;;;2.83;2.62;;;;;;;28.74;36.06;100395.63;5272837;33;33945;-87
2022/07/04 06:21:04;;;;;;;3.22;2.42;;;;;;;28.92;35.92;100391.19;5289048;33;34400;-86
2022/07/04 06:24:07;;;;;;;3.80;2.28;;;;;;;29.09;35.19;100387.94;5303447;33;34110;-86
2022/07/04 06:27:10;;;;;;;3.03;2.30;;;;;;;29.14;34.89;100388.69;5294680;33;35027;-86
2022/07/04 06:30:40;;;;;;;3.30;2.25;;;;;;;29.23;35.21;100397.13;5290403;33;33589;-87
2022/07/04 06:37:05;;;;;;;2.25;2.05;;;;;;;29.35;35.46;100397.47;5303451;33;34376;-87
2022/07/04 06:40:08;;;;;;;2.17;2.00;;;;;;;29.63;35.10;100393.97;5308096;33;33628;-86
2022/07/04 06:43:11;;;;;;;2.37;2.17;;;;;;;29.79;34.43;100389.81;5302331;33;34756;-87
2022/07/04 06:46:13;;;;;;;2.08;1.90;;;;;;;29.90;33.58;100396.81;5303753;33;34090;-90
2022/07/04 06:49:17;;;;;;;3.45;1.98;;;;;;;29.99;33.54;100399.69;5308432;33;34594;-91
2022/07/04 06:52:19;;;;;;;2.87;1.83;;;;;;;30.05;33.27;100395.69;5307069;33;33886;-90
2022/07/04 06:55:22;;;;;;;2.35;2.15;;;;;;;30.23;33.09;100392.00;5303505;33;34899;-87
2022/07/04 06:58:25;;;;;;;1.87;1.77;;;;;;;30.26;32.00;100391.41;5306398;33;34897;-87
2022/07/04 07:01:28;;;;;;;1.55;1.45;;;;;;;30.28;32.52;100397.47;5348470;28;35105;-87
2022/07/04 07:04:31;;;;;;;1.92;1.83;;;;;;;30.36;31.42;100389.53;5308083;33;34503;-87
2022/07/04 07:07:34;;;;;;;1.75;1.65;;;;;;;30.53;31.71;100392.50;5296678;33;34000;-87
2022/07/04 07:10:36;;;;;;;1.40;1.23;;;;;;;30.76;31.10;100393.37;5303140;33;33558;-87
2022/07/04 07:13:44;;;;;;;1.50;1.40;;;;;;;30.91;29.85;100392.22;5300525;33;33983;-86
2022/07/04 07:16:46;;;;;;;1.30;1.20;;;;;;;30.94;29.47;100397.16;5299595;33;34191;-86
2022/07/04 07:19:50;;;;;;;1.62;1.52;;;;;;;31.00;29.06;100395.09;5285895;33;33510;-87
2022/07/04 07:23:07;;;;;;;2.08;1.37;;;;;;;31.08;29.04;100391.56;5302138;33;33883;-87
2022/07/04 07:26:11;;;;;;;0.87;0.87;;;;;;;31.17;28.25;100389.66;5330130;28;34264;-86
2022/07/04 07:29:14;;;;;;;1.55;1.20;;;;;;;31.45;28.31;100395.12;5322032;33;34217;-86
2022/07/04 07:32:17;;;;;;;1.15;1.15;;;;;;;31.41;27.91;100386.56;5328618;33;34655;-86
2022/07/04 07:35:21;;;;;;;1.10;1.08;;;;;;;31.38;27.16;100392.78;5325956;33;36070;-86
2022/07/04 07:38:24;;;;;;;0.73;0.73;;;;;;;31.40;27.36;100385.75;5324785;33;34451;-86
2022/07/04 07:41:27;;;;;;;1.25;1.00;;;;;;;31.60;27.28;100389.97;5325058;33;34072;-86
2022/07/04 07:44:30;;;;;;;1.17;1.08;;;;;;;31.49;26.91;100399.72;5324769;33;34064;-89
2022/07/04 07:47:33;;;;;;;0.82;0.82;;;;;;;31.62;27.59;100392.44;5324920;33;34082;-90
2022/07/04 07:50:36;;;;;;;1.08;1.08;;;;;;;31.62;26.59;100387.72;5314101;33;32866;-89
2022/07/04 07:53:39;;;;;;;1.17;1.17;;;;;;;31.68;26.43;100393.13;5339298;33;33714;-90
2022/07/04 07:57:02;;;;;;;1.42;1.33;;;;;;;31.59;26.48;100390.28;5322905;33;32615;-86
2022/07/04 08:00:05;;;;;;;3.67;1.12;;;;;;;31.66;27.07;100385.09;5340521;33;34305;-87
2022/07/04 08:06:36;;;;;;;2.42;1.15;;;;;;;32.10;25.48;100388.94;5324722;33;34661;-86
2022/07/04 08:09:39;;;;;;;1.00;0.90;;;;;;;32.01;26.16;100386.09;5326466;33;33576;-87
2022/07/04 08:12:42;;;;;;;0.95;0.90;;;;;;;32.06;26.58;100382.38;5323920;33;33586;-86
2022/07/04 08:15:44;;;;;;;4.43;1.48;;;;;;;32.07;25.60;100378.44;5323452;33;32622;-86
2022/07/04 08:18:47;;;;;;;1.30;0.93;;;;;;;32.35;25.69;100372.59;5313324;33;33620;-86
2022/07/04 08:21:51;;;;;;;1.62;1.20;;;;;;;32.58;24.96;100370.53;5313820;33;33464;-86
2022/07/04 08:25:14;;;;;;;0.90;0.90;;;;;;;32.77;25.21;100373.03;5326463;33;35509;-86
2022/07/04 08:28:17;;;;;;;1.35;1.25;;;;;;;32.78;24.38;100371.88;5330784;33;34763;-87
2022/07/04 08:31:20;;;;;;;1.30;1.20;;;;;;;32.79;24.78;100379.94;5324943;33;33866;-86
2022/07/04 08:34:43;;;;;;;1.02;1.02;;;;;;;32.83;24.58;100374.50;5341167;33;33488;-86
2022/07/04 08:37:46;;;;;;;0.95;0.95;;;;;;;32.85;24.75;100370.25;5329474;33;33859;-86
2022/07/04 08:40:55;;;;;;;1.02;1.00;;;;;;;32.72;25.32;100372.03;5326581;33;33577;-86
2022/07/04 08:43:58;;;;;;;5.85;1.15;;;;;;;32.89;25.17;100370.41;5334527;33;34399;-86
2022/07/04 08:47:01;;;;;;;1.55;1.45;;;;;;;32.94;24.80;100370.25;5329252;33;34954;-86
2022/07/04 08:50:22;;;;;;;5.32;1.40;;;;;;;32.88;24.00;100377.13;5333666;33;34081;-87
2022/07/04 08:53:29;;;;;;;1.35;1.25;;;;;;;33.12;24.60;100363.53;5333074;33;34667;-90
2022/07/04 08:59:55;;;;;;;1.27;1.00;;;;;;;33.27;24.14;100364.16;5288052;33;34150;-87
2022/07/04 09:03:01;;;;;;;2.08;1.00;;;;;;;33.44;23.79;100357.75;5275648;33;34376;-87
2022/07/04 09:06:04;;;;;;;0.90;0.90;;;;;;;33.18;23.23;100365.00;5290372;33;33514;-88
2022/07/04 09:09:10;;;;;;;1.60;1.10;;;;;;;33.14;23.49;100369.63;5277048;33;33857;-87
2022/07/04 09:12:12;;;;;;;1.35;1.00;;;;;;;33.06;23.79;100370.44;5290113;33;33938;-88
2022/07/04 09:15:16;;;;;;;1.60;1.20;;;;;;;33.27;23.95;100366.97;5286189;33;34020;-87
2022/07/04 09:18:20;;;;;;;2.15;1.00;;;;;;;33.25;24.28;100366.47;5278062;33;34423;-88
2022/07/04 09:21:45;;;;;;;0.93;0.93;;;;;;;33.56;23.39;100358.72;5286316;33;34601;-88
2022/07/04 09:24:50;;;;;;;0.80;0.80;;;;;;;33.92;23.07;100359.41;5279679;33;34613;-88
2022/07/04 09:27:55;;;;;;;1.20;1.10;;;;;;;33.90;23.03;100356.94;5271559;33;32237;-87
2022/07/04 09:30:58;;;;;;;0.80;0.80;;;;;;;34.33;22.40;100358.72;5275410;33;34257;-88
2022/07/04 09:34:03;;;;;;;1.17;0.90;;;;;;;34.14;22.34;100367.53;5257675;33;32204;-88
2022/07/04 09:37:06;;;;;;;1.00;0.95;;;;;;;34.07;22.59;100356.88;5280084;33;34411;-88
2022/07/04 09:40:10;;;;;;;3.30;1.50;;;;;;;33.79;23.13;100364.88;5278275;33;35398;-87
2022/07/04 09:43:13;;;;;;;2.33;1.20;;;;;;;34.23;23.02;100364.69;5263680;33;32382;-87
2022/07/04 09:46:22;;;;;;;2.05;1.20;;;;;;;34.38;23.12;100355.72;5278685;33;33851;-88
2022/07/04 09:49:24;;;;;;;1.40;1.30;;;;;;;34.39;22.89;100346.16;5281635;33;35424;-88
2022/07/04 09:52:29;;;;;;;1.37;1.10;;;;;;;34.65;23.00;100339.59;5284294;33;33601;-87
2022/07/04 09:55:37;;;;;;;1.98;1.27;;;;;;;34.27;22.59;100341.31;5286831;33;34623;-88
2022/07/04 09:58:56;;;;;;;2.72;1.42;;;;;;;34.32;24.12;100337.50;5288333;33;35418;-88
2022/07/04 10:02:11;;;;;;;0.90;0.90;;;;;;;34.56;23.43;100336.88;5289954;33;35056;-88
2022/07/04 10:05:24;;;;;;;1.62;1.27;;;;;;;34.90;22.20;100341.38;5285893;33;34077;-89
2022/07/04 10:08:27;;;;;;;1.02;1.02;;;;;;;34.94;21.90;100335.91;5293381;33;34390;-88
2022/07/04 10:11:33;;;;;;;1.48;1.23;;;;;;;35.26;22.30;100339.88;5285742;33;33949;-85
2022/07/04 10:14:36;;;;;;;2.10;1.33;;;;;;;35.31;21.66;100334.09;5284075;33;34575;-86
2022/07/04 10:17:42;;;;;;;2.60;1.10;;;;;;;35.00;22.20;100331.72;5275696;33;34785;-87
2022/07/04 10:20:46;;;;;;;2.05;1.52;;;;;;;34.94;22.55;100328.31;5277755;33;34863;-88
2022/07/04 10:23:51;;;;;;;2.85;1.15;;;;;;;35.28;22.37;100317.97;5283616;33;33783;-86
2022/07/04 10:26:53;;;;;;;1.42;1.33;;;;;;;35.48;22.33;100321.84;5270664;33;35347;-87
2022/07/04 10:29:58;;;;;;;1.37;1.27;;;;;;;35.90;22.09;100315.28;5266620;33;34657;-85
2022/07/04 10:33:05;;;;;;;0.80;0.80;;;;;;;35.98;21.05;100322.72;5275754;33;34008;-86
2022/07/04 10:36:17;;;;;;;1.02;0.80;;;;;;;36.44;20.28;100301.78;5272412;33;34019;-86
2022/07/04 10:39:23;;;;;;;1.12;1.02;;;;;;;36.21;20.46;100306.28;5273264;33;34211;-86
2022/07/04 10:42:29;;;;;;;1.43;1.33;;;;;;;36.56;19.91;100284.13;5276387;33;33627;-86
2022/07/04 10:45:32;;;;;;;1.00;1.00;;;;;;;36.71;20.52;100293.78;5273683;33;34273;-86
2022/07/04 10:48:34;;;;;;;1.42;0.93;;;;;;;36.72;19.97;100292.62;5264734;33;33158;-87
2022/07/04 10:51:43;;;;;;;0.80;0.80;;;;;;;37.15;19.50;100280.63;5271272;33;33650;-87
2022/07/04 10:54:46;;;;;;;1.40;0.93;;;;;;;37.11;19.08;100282.50;5270852;33;34111;-86
2022/07/04 10:57:48;;;;;;;0.80;0.80;;;;;;;37.06;18.97;100285.56;5267840;33;34605;-88
2022/07/04 11:01:11;;;;;;;1.08;0.90;;;;;;;37.40;18.43;100272.03;5270973;33;33970;-87
2022/07/04 11:04:52;;;;;;;1.12;1.02;;;;;;;38.20;18.39;100278.41;5271540;33;34613;-87
2022/07/04 11:07:57;;;;;;;0.75;0.75;;;;;;;38.26;17.38;100276.94;5257823;33;32572;-90
2022/07/04 11:11:05;;;;;;;3.33;0.77;;;;;;;38.54;16.85;100277.59;5271330;33;34446;-88
2022/07/04 11:14:43;;;;;;;1.10;1.05;;;;;;;38.86;16.54;100271.81;5270216;33;34336;-87
2022/07/04 11:17:46;;;;;;;0.77;0.77;;;;;;;39.88;16.10;100265.59;5272123;33;34077;-86
2022/07/04 11:20:51;;;;;;;0.80;0.80;;;;;;;39.62;15.98;100269.19;5271339;33;34124;-86
2022/07/04 11:23:55;;;;;;;1.50;1.35;;;;;;;40.05;15.13;100261.41;5275845;33;34293;-86
2022/07/04 11:26:58;;;;;;;5.18;0.90;;;;;;;39.97;15.18;100262.50;5273472;33;34132;-86
2022/07/04 11:30:01;;;;;;;2.00;1.00;;;;;;;40.99;14.57;100240.84;5272619;33;34306;-86
2022/07/04 11:33:16;;;;;;;0.68;0.68;;;;;;;41.88;14.01;100241.59;5277736;33;33701;-86
2022/07/04 11:36:22;;;;;;;1.98;1.12;;;;;;;42.78;12.92;100239.25;5271351;33;35347;-85
2022/07/04 11:39:25;;;;;;;0.50;0.50;;;;;;;42.63;13.19;100240.41;5274702;33;33945;-86
2022/07/04 11:45:50;;;;;;;0.40;0.40;;;;;;;43.10;11.88;100221.50;5275893;33;34368;-87
2022/07/04 11:49:07;;;;;;;0.37;0.37;;;;;;;43.64;11.15;100220.28;5268087;33;34112;-86
2022/07/04 11:52:10;;;;;;;0.70;0.60;;;;;;;44.25;10.91;100222.97;5263820;33;33394;-86
2022/07/04 11:55:16;;;;;;;0.65;0.50;;;;;;;45.14;10.40;100213.19;5275187;33;34018;-86
2022/07/04 11:58:18;;;;;;;0.98;0.80;;;;;;;45.42;10.29;100214.16;5270311;33;33618;-86
2022/07/04 12:01:28;;;;;;;0.62;0.62;;;;;;;46.20;10.53;100212.56;5270699;33;34207;-87
2022/07/04 12:04:31;;;;;;;0.77;0.70;;;;;;;46.22;9.81;100197.88;5282142;33;35326;-88
2022/07/04 12:07:36;;;;;;;1.40;0.60;;;;;;;46.32;9.79;100211.22;5272626;33;33857;-90
2022/07/04 12:10:39;;;;;;;1.33;0.60;;;;;;;46.47;9.44;100206.13;5257553;33;32290;-88
2022/07/04 12:13:42;;;;;;;0.43;0.43;;;;;;;46.05;9.54;100203.37;5276835;33;34342;-86
2022/07/04 12:16:47;;;;;;;0.65;0.65;;;;;;;46.39;9.98;100198.91;5277501;33;34156;-87
2022/07/04 12:19:50;;;;;;;0.60;0.60;;;;;;;45.97;10.32;100210.41;5271081;33;33639;-86
2022/07/04 12:22:58;;;;;;;1.33;0.50;;;;;;;46.95;9.72;100203.00;5271003;33;33777;-87
2022/07/04 12:26:05;;;;;;;1.35;0.52;;;;;;;47.56;9.32;100198.31;5261331;33;32220;-87
2022/07/04 12:29:09;;;;;;;0.60;0.60;;;;;;;48.01;9.10;100203.59;5271371;33;34098;-88
2022/07/04 12:32:14;;;;;;;1.05;0.80;;;;;;;49.10;8.40;100198.69;5260600;33;34282;-87
2022/07/04 12:35:38;;;;;;;0.65;0.65;;;;;;;48.04;8.70;100202.72;5255450;33;32293;-87
2022/07/04 12:38:41;;;;;;;1.95;0.50;;;;;;;48.62;8.54;100199.44;5264300;33;33948;-87
2022/07/04 12:41:47;;;;;;;1.52;0.60;;;;;;;48.44;8.92;100199.81;5286413;33;32172;-87
2022/07/04 12:44:49;;;;;;;0.60;0.60;;;;;;;47.68;9.02;100200.50;5263347;33;32529;-87
2022/07/04 12:47:54;;;;;;;2.45;0.80;;;;;;;48.34;8.73;100193.91;5266485;33;32626;-88
2022/07/04 12:51:17;;;;;;;0.50;0.50;;;;;;;48.46;8.79;100198.12;5273025;33;33512;-88
2022/07/04 12:54:20;;;;;;;0.70;0.70;;;;;;;49.50;8.37;100189.91;5272198;33;34196;-85
2022/07/04 12:57:23;;;;;;;0.60;0.60;;;;;;;49.03;8.48;100191.09;5258660;33;32353;-87
2022/07/04 13:00:26;;;;;;;0.50;0.50;;;;;;;48.34;8.90;100191.03;5258411;33;32863;-87
2022/07/04 13:03:38;;;;;;;0.50;0.50;;;;;;;48.41;8.56;100183.56;5271175;33;34336;-87
2022/07/04 13:06:41;;;;;;;0.75;0.75;;;;;;;49.85;7.96;100182.41;5258781;33;33695;-88
2022/07/04 13:09:45;;;;;;;0.57;0.52;;;;;;;49.40;8.49;100180.34;5264858;33;224731;-87
2022/07/04 13:12:49;;;;;;;0.60;0.60;;;;;;;49.21;8.09;100170.66;5271728;33;33678;-87
2022/07/04 13:15:51;;;;;;;1.25;0.68;;;;;;;49.55;8.21;100175.03;5259261;33;32457;-87
2022/07/04 13:18:54;;;;;;;1.67;0.60;;;;;;;49.01;8.51;100184.22;5264784;33;33517;-87
2022/07/04 13:21:58;;;;;;;1.23;1.00;;;;;;;50.43;7.67;100189.31;5259565;33;34394;-87
2022/07/04 13:25:03;;;;;;;1.20;0.75;;;;;;;50.36;7.27;100173.94;5282628;33;34146;-87
2022/07/04 13:28:06;;;;;;;0.60;0.60;;;;;;;49.23;7.78;100167.31;5274098;33;34751;-87
2022/07/04 13:31:08;;;;;;;0.68;0.68;;;;;;;49.34;7.94;100181.34;5259391;33;32286;-87
2022/07/04 13:34:11;;;;;;;0.93;0.90;;;;;;;48.83;8.28;100175.28;5272514;33;32779;-88
2022/07/04 13:37:15;;;;;;;0.70;0.70;;;;;;;48.42;8.81;100182.34;5272748;33;33310;-91
2022/07/04 13:40:18;;;;;;;0.88;0.73;;;;;;;49.56;8.23;100170.94;5266611;33;34911;-91
2022/07/04 13:43:21;;;;;;;1.58;0.70;;;;;;;49.58;8.54;100164.78;5269857;33;34346;-90
2022/07/04 13:46:24;;;;;;;0.70;0.70;;;;;;;47.83;9.24;100167.66;5260582;33;32334;-91
2022/07/04 13:49:27;;;;;;;0.80;0.80;;;;;;;47.70;9.44;100169.50;5259371;33;33659;-87
2022/07/04 13:52:30;;;;;;;2.70;1.10;;;;;;;48.21;9.32;100167.28;5266592;33;34097;-88
2022/07/04 13:55:34;;;;;;;1.12;0.90;;;;;;;48.31;9.44;100171.12;5273382;33;34531;-88
2022/07/04 13:58:40;;;;;;;0.70;0.70;;;;;;;48.24;9.27;100159.88;5304653;28;34020;-87
2022/07/04 14:01:43;;;;;;;1.55;0.68;;;;;;;48.48;9.36;100154.84;5289340;33;33071;-88
2022/07/04 14:04:46;;;;;;;0.88;0.88;;;;;;;48.00;9.63;100148.53;5288159;33;33856;-88
2022/07/04 14:07:49;;;;;;;0.80;0.80;;;;;;;46.01;11.02;100145.69;5288985;33;33577;-87
2022/07/04 14:10:52;;;;;;;2.00;1.10;;;;;;;43.65;12.33;100156.72;5291320;33;34487;-87
2022/07/04 14:13:54;;;;;;;0.70;0.70;;;;;;;42.97;12.77;100162.41;5322519;28;34081;-87
2022/07/04 14:16:58;;;;;;;0.88;0.88;;;;;;;41.95;13.70;100146.72;5305414;33;32415;-87
2022/07/04 14:20:07;;;;;;;1.58;1.25;;;;;;;41.16;14.46;100141.34;5293101;33;32683;-87
2022/07/04 14:23:10;;;;;;;0.80;0.80;;;;;;;40.69;14.80;100144.91;5288811;33;34223;-87
2022/07/04 14:26:15;;;;;;;1.25;1.10;;;;;;;39.86;15.48;100145.94;5289454;33;33705;-87
2022/07/04 14:29:19;;;;;;;1.33;1.23;;;;;;;39.53;16.03;100147.47;5288321;33;34322;-87
2022/07/04 14:32:21;;;;;;;1.35;1.25;;;;;;;38.67;16.82;100146.00;5289332;33;34775;-86
2022/07/04 14:35:24;;;;;;;1.25;1.15;;;;;;;38.49;17.35;100150.47;5306192;33;33992;-87
2022/07/04 14:38:27;;;;;;;1.10;1.10;;;;;;;38.08;17.73;100145.22;5309032;33;35061;-87
2022/07/04 14:41:31;;;;;;;1.55;1.08;;;;;;;37.69;18.35;100147.16;5307213;28;32389;-87
2022/07/04 14:44:37;;;;;;;1.62;1.52;;;;;;;37.39;18.04;100146.84;5318483;33;34169;-87
2022/07/04 14:47:41;;;;;;;1.08;1.00;;;;;;;37.09;18.72;100136.09;5309364;33;34088;-86
2022/07/04 14:50:44;;;;;;;1.17;1.17;;;;;;;37.12;18.85;100138.19;5295910;33;33871;-87
2022/07/04 14:53:47;;;;;;;1.30;1.20;;;;;;;37.08;19.06;100145.69;5309224;33;34009;-87
2022/07/04 14:56:50;;;;;;;1.12;1.02;;;;;;;37.10;18.98;100137.72;5311943;33;34191;-86
2022/07/04 14:59:52;;;;;;;1.12;1.02;;;;;;;36.91;18.57;100129.19;5296233;33;33520;-86
2022/07/04 15:02:55;;;;;;;1.05;0.98;;;;;;;36.71;18.56;100134.72;5308967;33;34903;-86
2022/07/04 15:05:58;;;;;;;0.98;0.98;;;;;;;36.63;18.64;100129.28;5312405;33;34746;-86
2022/07/04 15:09:08;;;;;;;1.05;1.05;;;;;;;36.31;18.87;100132.78;5301292;33;34180;-86
2022/07/04 15:12:11;;;;;;;1.33;1.30;;;;;;;36.31;19.25;100121.56;5314099;33;34054;-86
2022/07/04 15:15:14;;;;;;;1.30;1.30;;;;;;;36.06;19.20;100122.84;5328506;33;34033;-86
2022/07/04 15:18:37;;;;;;;1.42;1.33;;;;;;;35.94;19.40;100120.88;5327207;33;34038;-86
2022/07/04 15:25:18;;;;;;;1.90;1.17;;;;;;;35.86;19.46;100119.88;5239798;33;33853;-87
2022/07/04 15:28:21;;;;;;;2.00;1.45;;;;;;;35.70;19.74;100121.75;5243966;33;32490;-87
2022/07/04 15:31:23;;;;;;;1.05;1.05;;;;;;;35.64;19.71;100118.37;5266065;33;33679;-87
2022/07/04 15:34:27;;;;;;;2.53;1.02;;;;;;;35.63;19.63;100124.34;5267017;33;33959;-87
2022/07/04 15:37:29;;;;;;;1.25;0.93;;;;;;;35.55;19.59;100119.69;5272793;33;34079;-87
2022/07/04 15:40:35;;;;;;;1.10;1.10;;;;;;;35.38;19.86;100113.16;5271172;33;34050;-87
2022/07/04 15:43:38;;;;;;;1.10;1.10;;;;;;;35.17;19.97;100112.47;5270528;33;34652;-88
2022/07/04 15:50:02;;;;;;;2.37;1.10;;;;;;;34.99;19.79;100104.28;5274580;33;34558;-88
2022/07/04 15:53:05;;;;;;;1.60;0.90;;;;;;;34.88;20.00;100108.69;5261797;33;34269;-88
2022/07/04 15:56:08;;;;;;;1.20;1.05;;;;;;;34.73;20.50;100113.00;5270716;33;33961;-88
2022/07/04 15:59:11;;;;;;;2.17;1.50;;;;;;;34.59;21.87;100125.66;5265833;33;33770;-88
2022/07/04 16:02:13;;;;;;;2.28;1.37;;;;;;;34.46;23.51;100119.22;5275378;33;33928;-88
